METAR Data
IDs: Format: Raw Decoded Include TAF

Data at: 1038 UTC 28 Sep 2021

LFBZ 281030Z AUTO 07005KT 030V120 9999 BKN013 BKN200 18/16 Q1021 BECMG 27010KT BKN040